sensor_id;sensor_type;location;lat;lon;timestamp;P1;durP1;ratioP1;P2;durP2;ratioP2
12467;SDS011;57850;52.922;6.256;2023-03-21T00:02:09;68.63;;;29.42;;
12467;SDS011;57850;52.922;6.256;2023-03-21T00:04:36;67.72;;;27.48;;
12467;SDS011;57850;52.922;6.256;2023-03-21T00:07:03;60.92;;;27.35;;
12467;SDS011;57850;52.922;6.256;2023-03-21T00:09:30;59.53;;;28.95;;
12467;SDS011;57850;52.922;6.256;2023-03-21T00:11:57;64.13;;;28.27;;
12467;SDS011;57850;52.922;6.256;2023-03-21T00:14:25;58.35;;;27.33;;
12467;SDS011;57850;52.922;6.256;2023-03-21T00:16:55;52.47;;;25.95;;
12467;SDS011;57850;52.922;6.256;2023-03-21T00:19:21;62.70;;;29.48;;
12467;SDS011;57850;52.922;6.256;2023-03-21T00:21:50;61.63;;;29.30;;
12467;SDS011;57850;52.922;6.256;2023-03-21T00:24:19;66.65;;;28.73;;
12467;SDS011;57850;52.922;6.256;2023-03-21T00:26:46;55.55;;;27.55;;
12467;SDS011;57850;52.922;6.256;2023-03-21T00:29:13;68.45;;;27.20;;
12467;SDS011;57850;52.922;6.256;2023-03-21T00:31:40;64.10;;;29.15;;
12467;SDS011;57850;52.922;6.256;2023-03-21T00:34:06;64.82;;;29.10;;
12467;SDS011;57850;52.922;6.256;2023-03-21T00:36:32;70.93;;;30.20;;
12467;SDS011;57850;52.922;6.256;2023-03-21T00:38:59;56.35;;;26.80;;
12467;SDS011;57850;52.922;6.256;2023-03-21T00:41:27;58.15;;;28.17;;
12467;SDS011;57850;52.922;6.256;2023-03-21T00:43:54;59.63;;;27.92;;
12467;SDS011;57850;52.922;6.256;2023-03-21T00:46:21;62.83;;;27.95;;
12467;SDS011;57850;52.922;6.256;2023-03-21T00:48:48;58.90;;;27.38;;
12467;SDS011;57850;52.922;6.256;2023-03-21T00:51:17;60.90;;;29.30;;
12467;SDS011;57850;52.922;6.256;2023-03-21T00:53:50;49.70;;;26.73;;
12467;SDS011;57850;52.922;6.256;2023-03-21T00:56:17;52.90;;;27.02;;
12467;SDS011;57850;52.922;6.256;2023-03-21T00:58:45;56.67;;;27.77;;
12467;SDS011;57850;52.922;6.256;2023-03-21T01:01:11;54.25;;;27.45;;
12467;SDS011;57850;52.922;6.256;2023-03-21T01:03:38;53.50;;;27.35;;
12467;SDS011;57850;52.922;6.256;2023-03-21T01:06:14;51.75;;;26.65;;
12467;SDS011;57850;52.922;6.256;2023-03-21T01:08:43;49.97;;;27.17;;
12467;SDS011;57850;52.922;6.256;2023-03-21T01:11:11;53.90;;;27.55;;
12467;SDS011;57850;52.922;6.256;2023-03-21T01:13:39;56.47;;;29.20;;
12467;SDS011;57850;52.922;6.256;2023-03-21T01:16:08;59.55;;;29.55;;
12467;SDS011;57850;52.922;6.256;2023-03-21T01:18:36;54.50;;;28.45;;
12467;SDS011;57850;52.922;6.256;2023-03-21T01:21:05;58.17;;;29.30;;
12467;SDS011;57850;52.922;6.256;2023-03-21T01:23:34;52.65;;;26.75;;
12467;SDS011;57850;52.922;6.256;2023-03-21T01:26:00;54.33;;;26.85;;
12467;SDS011;57850;52.922;6.256;2023-03-21T01:28:27;56.10;;;28.27;;
12467;SDS011;57850;52.922;6.256;2023-03-21T01:30:54;53.28;;;27.88;;
12467;SDS011;57850;52.922;6.256;2023-03-21T01:33:23;50.92;;;28.05;;
12467;SDS011;57850;52.922;6.256;2023-03-21T01:35:49;49.67;;;26.70;;
12467;SDS011;57850;52.922;6.256;2023-03-21T01:38:16;51.70;;;27.58;;
12467;SDS011;57850;52.922;6.256;2023-03-21T01:40:43;47.67;;;26.05;;
12467;SDS011;57850;52.922;6.256;2023-03-21T01:43:19;51.22;;;27.60;;
12467;SDS011;57850;52.922;6.256;2023-03-21T01:46:09;43.65;;;23.80;;
12467;SDS011;57850;52.922;6.256;2023-03-21T01:48:49;49.60;;;24.95;;
12467;SDS011;57850;52.922;6.256;2023-03-21T01:51:18;45.30;;;25.05;;
12467;SDS011;57850;52.922;6.256;2023-03-21T01:53:47;45.60;;;26.08;;
12467;SDS011;57850;52.922;6.256;2023-03-21T01:56:15;49.63;;;24.05;;
12467;SDS011;57850;52.922;6.256;2023-03-21T01:58:46;43.75;;;24.42;;
12467;SDS011;57850;52.922;6.256;2023-03-21T02:01:14;49.03;;;25.63;;
12467;SDS011;57850;52.922;6.256;2023-03-21T02:03:41;50.92;;;25.90;;
12467;SDS011;57850;52.922;6.256;2023-03-21T02:06:17;54.90;;;25.02;;
12467;SDS011;57850;52.922;6.256;2023-03-21T02:08:49;47.33;;;24.55;;
12467;SDS011;57850;52.922;6.256;2023-03-21T02:11:16;49.13;;;24.92;;
12467;SDS011;57850;52.922;6.256;2023-03-21T02:13:43;51.88;;;23.88;;
12467;SDS011;57850;52.922;6.256;2023-03-21T02:16:11;45.53;;;23.58;;
12467;SDS011;57850;52.922;6.256;2023-03-21T02:18:43;46.15;;;23.02;;
12467;SDS011;57850;52.922;6.256;2023-03-21T02:21:26;45.85;;;21.17;;
12467;SDS011;57850;52.922;6.256;2023-03-21T02:24:24;40.78;;;21.40;;
12467;SDS011;57850;52.922;6.256;2023-03-21T02:27:06;37.40;;;19.70;;
12467;SDS011;57850;52.922;6.256;2023-03-21T02:29:42;39.13;;;20.50;;
12467;SDS011;57850;52.922;6.256;2023-03-21T02:32:36;36.67;;;19.27;;
12467;SDS011;57850;52.922;6.256;2023-03-21T02:35:16;38.85;;;19.30;;
12467;SDS011;57850;52.922;6.256;2023-03-21T02:37:51;38.13;;;18.63;;
12467;SDS011;57850;52.922;6.256;2023-03-21T02:40:24;33.60;;;18.10;;
12467;SDS011;57850;52.922;6.256;2023-03-21T02:42:58;31.52;;;17.35;;
12467;SDS011;57850;52.922;6.256;2023-03-21T02:45:31;34.22;;;17.83;;
12467;SDS011;57850;52.922;6.256;2023-03-21T02:48:05;30.77;;;16.67;;
12467;SDS011;57850;52.922;6.256;2023-03-21T02:50:35;30.13;;;16.85;;
12467;SDS011;57850;52.922;6.256;2023-03-21T02:53:09;33.00;;;18.25;;
12467;SDS011;57850;52.922;6.256;2023-03-21T02:55:39;32.15;;;15.77;;
12467;SDS011;57850;52.922;6.256;2023-03-21T02:58:08;34.28;;;16.50;;
12467;SDS011;57850;52.922;6.256;2023-03-21T03:00:37;28.38;;;15.52;;
12467;SDS011;57850;52.922;6.256;2023-03-21T03:03:06;28.17;;;16.40;;
12467;SDS011;57850;52.922;6.256;2023-03-21T03:05:34;25.67;;;15.07;;
12467;SDS011;57850;52.922;6.256;2023-03-21T03:08:06;29.20;;;15.95;;
12467;SDS011;57850;52.922;6.256;2023-03-21T03:10:57;26.58;;;15.30;;
12467;SDS011;57850;52.922;6.256;2023-03-21T03:13:36;27.23;;;15.82;;
12467;SDS011;57850;52.922;6.256;2023-03-21T03:16:14;31.17;;;17.13;;
12467;SDS011;57850;52.922;6.256;2023-03-21T03:18:47;32.83;;;17.33;;
12467;SDS011;57850;52.922;6.256;2023-03-21T03:21:18;28.90;;;16.80;;
12467;SDS011;57850;52.922;6.256;2023-03-21T03:23:50;30.45;;;17.30;;
12467;SDS011;57850;52.922;6.256;2023-03-21T03:26:20;32.63;;;17.88;;
12467;SDS011;57850;52.922;6.256;2023-03-21T03:28:52;31.48;;;18.05;;
12467;SDS011;57850;52.922;6.256;2023-03-21T03:31:23;30.33;;;17.70;;
12467;SDS011;57850;52.922;6.256;2023-03-21T03:33:53;31.30;;;17.88;;
12467;SDS011;57850;52.922;6.256;2023-03-21T03:36:23;33.92;;;18.02;;
12467;SDS011;57850;52.922;6.256;2023-03-21T03:38:54;28.90;;;16.80;;
12467;SDS011;57850;52.922;6.256;2023-03-21T03:41:23;34.28;;;18.30;;
12467;SDS011;57850;52.922;6.256;2023-03-21T03:43:52;30.35;;;17.33;;
12467;SDS011;57850;52.922;6.256;2023-03-21T03:46:24;29.48;;;17.80;;
12467;SDS011;57850;52.922;6.256;2023-03-21T03:48:56;37.92;;;18.88;;
12467;SDS011;57850;52.922;6.256;2023-03-21T03:51:27;31.25;;;17.10;;
12467;SDS011;57850;52.922;6.256;2023-03-21T03:53:59;31.00;;;18.33;;
12467;SDS011;57850;52.922;6.256;2023-03-21T03:56:29;36.30;;;19.13;;
12467;SDS011;57850;52.922;6.256;2023-03-21T03:58:56;29.15;;;17.35;;
12467;SDS011;57850;52.922;6.256;2023-03-21T04:01:23;31.30;;;18.15;;
12467;SDS011;57850;52.922;6.256;2023-03-21T04:03:50;32.95;;;18.08;;
12467;SDS011;57850;52.922;6.256;2023-03-21T04:06:17;34.55;;;18.33;;
12467;SDS011;57850;52.922;6.256;2023-03-21T04:08:46;34.83;;;19.17;;
12467;SDS011;57850;52.922;6.256;2023-03-21T04:11:15;34.60;;;18.23;;
12467;SDS011;57850;52.922;6.256;2023-03-21T04:13:41;33.78;;;17.90;;
12467;SDS011;57850;52.922;6.256;2023-03-21T04:16:09;32.75;;;19.02;;
12467;SDS011;57850;52.922;6.256;2023-03-21T04:18:37;34.25;;;18.52;;
12467;SDS011;57850;52.922;6.256;2023-03-21T04:21:08;31.90;;;19.38;;
12467;SDS011;57850;52.922;6.256;2023-03-21T04:23:36;29.55;;;16.90;;
12467;SDS011;57850;52.922;6.256;2023-03-21T04:26:04;33.63;;;17.27;;
12467;SDS011;57850;52.922;6.256;2023-03-21T04:28:34;29.08;;;17.38;;
12467;SDS011;57850;52.922;6.256;2023-03-21T04:31:01;31.40;;;17.25;;
12467;SDS011;57850;52.922;6.256;2023-03-21T04:33:30;28.10;;;16.48;;
12467;SDS011;57850;52.922;6.256;2023-03-21T04:35:56;30.48;;;16.50;;
12467;SDS011;57850;52.922;6.256;2023-03-21T04:38:23;28.98;;;17.40;;
12467;SDS011;57850;52.922;6.256;2023-03-21T04:40:54;30.48;;;17.88;;
12467;SDS011;57850;52.922;6.256;2023-03-21T04:43:21;32.35;;;18.20;;
12467;SDS011;57850;52.922;6.256;2023-03-21T04:45:49;34.85;;;19.02;;
12467;SDS011;57850;52.922;6.256;2023-03-21T04:48:16;32.50;;;18.63;;
12467;SDS011;57850;52.922;6.256;2023-03-21T04:50:43;34.53;;;20.08;;
12467;SDS011;57850;52.922;6.256;2023-03-21T04:53:10;36.33;;;21.20;;
12467;SDS011;57850;52.922;6.256;2023-03-21T04:55:37;41.10;;;20.73;;
12467;SDS011;57850;52.922;6.256;2023-03-21T04:58:03;41.03;;;20.13;;
12467;SDS011;57850;52.922;6.256;2023-03-21T05:00:30;39.08;;;21.30;;
12467;SDS011;57850;52.922;6.256;2023-03-21T05:03:03;37.63;;;21.83;;
12467;SDS011;57850;52.922;6.256;2023-03-21T05:05:33;38.00;;;21.55;;
12467;SDS011;57850;52.922;6.256;2023-03-21T05:07:59;35.85;;;20.95;;
12467;SDS011;57850;52.922;6.256;2023-03-21T05:10:26;34.58;;;20.17;;
12467;SDS011;57850;52.922;6.256;2023-03-21T05:12:52;38.20;;;21.83;;
12467;SDS011;57850;52.922;6.256;2023-03-21T05:15:19;31.20;;;18.20;;
12467;SDS011;57850;52.922;6.256;2023-03-21T05:17:46;33.28;;;20.98;;
12467;SDS011;57850;52.922;6.256;2023-03-21T05:20:14;33.22;;;20.77;;
12467;SDS011;57850;52.922;6.256;2023-03-21T05:22:43;33.03;;;20.63;;
12467;SDS011;57850;52.922;6.256;2023-03-21T05:25:10;33.72;;;19.08;;
12467;SDS011;57850;52.922;6.256;2023-03-21T05:27:38;33.53;;;20.98;;
12467;SDS011;57850;52.922;6.256;2023-03-21T05:30:10;36.53;;;20.95;;
12467;SDS011;57850;52.922;6.256;2023-03-21T05:32:38;35.55;;;21.20;;
12467;SDS011;57850;52.922;6.256;2023-03-21T05:35:05;35.30;;;20.75;;
12467;SDS011;57850;52.922;6.256;2023-03-21T05:37:34;33.17;;;20.70;;
12467;SDS011;57850;52.922;6.256;2023-03-21T05:40:00;36.47;;;21.48;;
12467;SDS011;57850;52.922;6.256;2023-03-21T05:42:27;39.25;;;23.10;;
12467;SDS011;57850;52.922;6.256;2023-03-21T05:44:54;38.28;;;22.88;;
12467;SDS011;57850;52.922;6.256;2023-03-21T05:47:20;36.88;;;23.52;;
12467;SDS011;57850;52.922;6.256;2023-03-21T05:49:46;37.72;;;22.75;;
12467;SDS011;57850;52.922;6.256;2023-03-21T05:52:14;37.75;;;23.23;;
12467;SDS011;57850;52.922;6.256;2023-03-21T05:54:42;40.63;;;24.08;;
12467;SDS011;57850;52.922;6.256;2023-03-21T05:57:08;38.63;;;24.08;;
12467;SDS011;57850;52.922;6.256;2023-03-21T05:59:35;39.42;;;23.38;;
12467;SDS011;57850;52.922;6.256;2023-03-21T06:02:02;41.75;;;24.30;;
12467;SDS011;57850;52.922;6.256;2023-03-21T06:04:28;39.40;;;24.13;;
12467;SDS011;57850;52.922;6.256;2023-03-21T06:06:55;42.15;;;25.63;;
12467;SDS011;57850;52.922;6.256;2023-03-21T06:09:22;38.88;;;24.50;;
12467;SDS011;57850;52.922;6.256;2023-03-21T06:11:51;42.30;;;24.67;;
12467;SDS011;57850;52.922;6.256;2023-03-21T06:14:19;38.83;;;23.23;;
12467;SDS011;57850;52.922;6.256;2023-03-21T06:16:46;37.92;;;22.85;;
12467;SDS011;57850;52.922;6.256;2023-03-21T06:19:12;40.08;;;22.15;;
12467;SDS011;57850;52.922;6.256;2023-03-21T06:21:39;36.53;;;21.98;;
12467;SDS011;57850;52.922;6.256;2023-03-21T06:24:06;35.22;;;21.73;;
12467;SDS011;57850;52.922;6.256;2023-03-21T06:26:33;34.97;;;20.95;;
12467;SDS011;57850;52.922;6.256;2023-03-21T06:29:01;33.50;;;20.80;;
12467;SDS011;57850;52.922;6.256;2023-03-21T06:31:27;31.60;;;20.38;;
12467;SDS011;57850;52.922;6.256;2023-03-21T06:33:54;31.92;;;19.55;;
12467;SDS011;57850;52.922;6.256;2023-03-21T06:36:20;31.60;;;19.52;;
12467;SDS011;57850;52.922;6.256;2023-03-21T06:38:47;28.85;;;17.42;;
12467;SDS011;57850;52.922;6.256;2023-03-21T06:41:14;27.33;;;17.52;;
12467;SDS011;57850;52.922;6.256;2023-03-21T06:43:41;27.65;;;17.98;;
12467;SDS011;57850;52.922;6.256;2023-03-21T06:46:09;26.45;;;16.98;;
12467;SDS011;57850;52.922;6.256;2023-03-21T06:48:35;26.00;;;17.42;;
12467;SDS011;57850;52.922;6.256;2023-03-21T06:51:08;25.67;;;16.55;;
12467;SDS011;57850;52.922;6.256;2023-03-21T06:53:35;26.60;;;17.83;;
12467;SDS011;57850;52.922;6.256;2023-03-21T06:56:02;23.10;;;16.15;;
12467;SDS011;57850;52.922;6.256;2023-03-21T06:58:29;26.80;;;17.70;;
12467;SDS011;57850;52.922;6.256;2023-03-21T07:00:56;25.73;;;16.95;;
12467;SDS011;57850;52.922;6.256;2023-03-21T07:03:25;24.67;;;17.30;;
12467;SDS011;57850;52.922;6.256;2023-03-21T07:05:51;22.38;;;15.75;;
12467;SDS011;57850;52.922;6.256;2023-03-21T07:08:18;23.55;;;16.63;;
12467;SDS011;57850;52.922;6.256;2023-03-21T07:10:44;24.40;;;16.73;;
12467;SDS011;57850;52.922;6.256;2023-03-21T07:13:11;25.02;;;17.33;;
12467;SDS011;57850;52.922;6.256;2023-03-21T07:15:38;25.05;;;16.45;;
12467;SDS011;57850;52.922;6.256;2023-03-21T07:18:06;20.55;;;14.55;;
12467;SDS011;57850;52.922;6.256;2023-03-21T07:20:35;20.15;;;14.73;;
12467;SDS011;57850;52.922;6.256;2023-03-21T07:23:02;24.73;;;14.57;;
12467;SDS011;57850;52.922;6.256;2023-03-21T07:25:29;22.05;;;14.90;;
12467;SDS011;57850;52.922;6.256;2023-03-21T07:27:55;20.05;;;13.70;;
12467;SDS011;57850;52.922;6.256;2023-03-21T07:30:22;18.33;;;14.20;;
12467;SDS011;57850;52.922;6.256;2023-03-21T07:32:49;20.05;;;13.88;;
12467;SDS011;57850;52.922;6.256;2023-03-21T07:35:17;17.42;;;12.80;;
12467;SDS011;57850;52.922;6.256;2023-03-21T07:37:45;16.70;;;12.68;;
12467;SDS011;57850;52.922;6.256;2023-03-21T07:40:12;18.40;;;11.75;;
12467;SDS011;57850;52.922;6.256;2023-03-21T07:42:38;14.13;;;11.80;;
12467;SDS011;57850;52.922;6.256;2023-03-21T07:45:06;14.15;;;11.13;;
12467;SDS011;57850;52.922;6.256;2023-03-21T07:47:34;15.52;;;11.35;;
12467;SDS011;57850;52.922;6.256;2023-03-21T07:50:01;15.25;;;12.00;;
12467;SDS011;57850;52.922;6.256;2023-03-21T07:52:29;16.77;;;12.43;;
12467;SDS011;57850;52.922;6.256;2023-03-21T07:54:57;16.55;;;13.50;;
12467;SDS011;57850;52.922;6.256;2023-03-21T07:57:23;16.83;;;13.43;;
12467;SDS011;57850;52.922;6.256;2023-03-21T07:59:50;19.98;;;15.05;;
12467;SDS011;57850;52.922;6.256;2023-03-21T08:02:16;23.27;;;15.82;;
12467;SDS011;57850;52.922;6.256;2023-03-21T08:04:43;22.40;;;16.83;;
12467;SDS011;57850;52.922;6.256;2023-03-21T08:07:10;25.17;;;17.88;;
12467;SDS011;57850;52.922;6.256;2023-03-21T08:09:37;24.75;;;18.13;;
12467;SDS011;57850;52.922;6.256;2023-03-21T08:12:06;25.77;;;18.70;;
12467;SDS011;57850;52.922;6.256;2023-03-21T08:14:33;25.90;;;18.15;;
12467;SDS011;57850;52.922;6.256;2023-03-21T08:17:00;25.13;;;19.10;;
12467;SDS011;57850;52.922;6.256;2023-03-21T08:19:27;27.92;;;19.20;;
12467;SDS011;57850;52.922;6.256;2023-03-21T08:21:53;29.27;;;19.52;;
12467;SDS011;57850;52.922;6.256;2023-03-21T08:24:23;32.03;;;20.35;;
12467;SDS011;57850;52.922;6.256;2023-03-21T08:26:50;29.42;;;19.10;;
12467;SDS011;57850;52.922;6.256;2023-03-21T08:29:18;31.33;;;20.45;;
12467;SDS011;57850;52.922;6.256;2023-03-21T08:31:45;32.80;;;21.35;;
12467;SDS011;57850;52.922;6.256;2023-03-21T08:34:12;34.05;;;22.17;;
12467;SDS011;57850;52.922;6.256;2023-03-21T08:36:39;30.70;;;22.73;;
12467;SDS011;57850;52.922;6.256;2023-03-21T08:39:06;31.27;;;22.05;;
12467;SDS011;57850;52.922;6.256;2023-03-21T08:41:33;30.23;;;21.52;;
12467;SDS011;57850;52.922;6.256;2023-03-21T08:44:01;35.88;;;23.35;;
12467;SDS011;57850;52.922;6.256;2023-03-21T08:46:30;36.08;;;23.45;;
12467;SDS011;57850;52.922;6.256;2023-03-21T08:48:58;38.97;;;24.08;;
12467;SDS011;57850;52.922;6.256;2023-03-21T08:51:25;37.55;;;23.00;;
12467;SDS011;57850;52.922;6.256;2023-03-21T08:53:52;37.88;;;24.48;;
12467;SDS011;57850;52.922;6.256;2023-03-21T08:56:18;36.38;;;24.48;;
12467;SDS011;57850;52.922;6.256;2023-03-21T08:58:45;41.65;;;24.55;;
12467;SDS011;57850;52.922;6.256;2023-03-21T09:01:13;41.20;;;24.20;;
12467;SDS011;57850;52.922;6.256;2023-03-21T09:03:41;38.03;;;23.40;;
12467;SDS011;57850;52.922;6.256;2023-03-21T09:06:08;35.97;;;23.25;;
12467;SDS011;57850;52.922;6.256;2023-03-21T09:08:38;38.92;;;23.23;;
12467;SDS011;57850;52.922;6.256;2023-03-21T09:11:06;36.47;;;22.83;;
12467;SDS011;57850;52.922;6.256;2023-03-21T09:13:33;36.35;;;22.20;;
12467;SDS011;57850;52.922;6.256;2023-03-21T09:16:00;34.25;;;21.85;;
12467;SDS011;57850;52.922;6.256;2023-03-21T09:18:26;38.03;;;22.17;;
12467;SDS011;57850;52.922;6.256;2023-03-21T09:21:14;38.65;;;22.73;;
12467;SDS011;57850;52.922;6.256;2023-03-21T09:23:45;34.70;;;21.45;;
12467;SDS011;57850;52.922;6.256;2023-03-21T09:26:12;37.03;;;21.58;;
12467;SDS011;57850;52.922;6.256;2023-03-21T09:28:40;39.92;;;22.63;;
12467;SDS011;57850;52.922;6.256;2023-03-21T09:31:07;35.75;;;21.42;;
12467;SDS011;57850;52.922;6.256;2023-03-21T09:33:35;35.20;;;21.80;;
12467;SDS011;57850;52.922;6.256;2023-03-21T09:36:02;37.50;;;21.13;;
12467;SDS011;57850;52.922;6.256;2023-03-21T09:38:32;32.25;;;20.20;;
12467;SDS011;57850;52.922;6.256;2023-03-21T09:41:08;33.08;;;20.65;;
12467;SDS011;57850;52.922;6.256;2023-03-21T09:43:52;33.22;;;22.05;;
12467;SDS011;57850;52.922;6.256;2023-03-21T09:46:30;34.67;;;20.33;;
12467;SDS011;57850;52.922;6.256;2023-03-21T09:49:06;37.50;;;20.67;;
12467;SDS011;57850;52.922;6.256;2023-03-21T09:51:38;39.83;;;21.08;;
12467;SDS011;57850;52.922;6.256;2023-03-21T09:54:10;37.13;;;21.95;;
12467;SDS011;57850;52.922;6.256;2023-03-21T09:56:42;33.15;;;21.10;;
12467;SDS011;57850;52.922;6.256;2023-03-21T09:59:13;35.17;;;21.25;;
12467;SDS011;57850;52.922;6.256;2023-03-21T10:01:49;34.40;;;21.33;;
12467;SDS011;57850;52.922;6.256;2023-03-21T10:04:16;36.92;;;20.45;;
12467;SDS011;57850;52.922;6.256;2023-03-21T10:06:55;38.55;;;20.92;;
12467;SDS011;57850;52.922;6.256;2023-03-21T10:09:26;35.75;;;20.52;;
12467;SDS011;57850;52.922;6.256;2023-03-21T10:11:58;36.13;;;19.75;;
12467;SDS011;57850;52.922;6.256;2023-03-21T10:14:28;30.10;;;18.95;;
12467;SDS011;57850;52.922;6.256;2023-03-21T10:16:58;31.88;;;20.70;;
12467;SDS011;57850;52.922;6.256;2023-03-21T10:19:27;32.45;;;19.23;;
12467;SDS011;57850;52.922;6.256;2023-03-21T10:21:54;29.45;;;18.65;;
12467;SDS011;57850;52.922;6.256;2023-03-21T10:24:22;27.63;;;18.38;;
12467;SDS011;57850;52.922;6.256;2023-03-21T10:26:52;31.63;;;20.13;;
12467;SDS011;57850;52.922;6.256;2023-03-21T10:29:21;29.40;;;18.25;;
12467;SDS011;57850;52.922;6.256;2023-03-21T10:31:51;32.03;;;18.33;;
12467;SDS011;57850;52.922;6.256;2023-03-21T10:34:22;28.13;;;17.42;;
12467;SDS011;57850;52.922;6.256;2023-03-21T10:36:53;34.85;;;18.88;;
12467;SDS011;57850;52.922;6.256;2023-03-21T10:39:22;32.50;;;19.00;;
12467;SDS011;57850;52.922;6.256;2023-03-21T10:41:53;26.77;;;18.48;;
12467;SDS011;57850;52.922;6.256;2023-03-21T10:44:20;28.90;;;18.48;;
12467;SDS011;57850;52.922;6.256;2023-03-21T10:46:50;34.38;;;17.40;;
12467;SDS011;57850;52.922;6.256;2023-03-21T10:49:18;29.75;;;18.33;;
12467;SDS011;57850;52.922;6.256;2023-03-21T10:51:46;29.10;;;17.63;;
12467;SDS011;57850;52.922;6.256;2023-03-21T10:54:17;29.25;;;18.35;;
12467;SDS011;57850;52.922;6.256;2023-03-21T10:56:48;19.95;;;14.93;;
12467;SDS011;57850;52.922;6.256;2023-03-21T10:59:22;27.45;;;16.85;;
12467;SDS011;57850;52.922;6.256;2023-03-21T11:01:51;22.63;;;15.63;;
12467;SDS011;57850;52.922;6.256;2023-03-21T11:04:21;23.52;;;15.63;;
12467;SDS011;57850;52.922;6.256;2023-03-21T11:06:52;20.15;;;14.70;;
12467;SDS011;57850;52.922;6.256;2023-03-21T11:09:21;20.45;;;14.35;;
12467;SDS011;57850;52.922;6.256;2023-03-21T11:11:50;25.02;;;13.85;;
12467;SDS011;57850;52.922;6.256;2023-03-21T11:14:30;19.02;;;12.27;;
12467;SDS011;57850;52.922;6.256;2023-03-21T11:16:59;17.45;;;13.57;;
12467;SDS011;57850;52.922;6.256;2023-03-21T11:19:28;20.35;;;14.07;;
12467;SDS011;57850;52.922;6.256;2023-03-21T11:21:57;23.25;;;13.20;;
12467;SDS011;57850;52.922;6.256;2023-03-21T11:24:26;16.10;;;12.38;;
12467;SDS011;57850;52.922;6.256;2023-03-21T11:26:55;19.67;;;12.18;;
12467;SDS011;57850;52.922;6.256;2023-03-21T11:29:30;18.50;;;13.05;;
12467;SDS011;57850;52.922;6.256;2023-03-21T11:31:59;17.70;;;12.32;;
12467;SDS011;57850;52.922;6.256;2023-03-21T11:34:37;15.63;;;11.23;;
12467;SDS011;57850;52.922;6.256;2023-03-21T11:37:16;16.52;;;11.07;;
12467;SDS011;57850;52.922;6.256;2023-03-21T11:39:44;13.50;;;10.88;;
12467;SDS011;57850;52.922;6.256;2023-03-21T11:42:27;12.70;;;10.38;;
12467;SDS011;57850;52.922;6.256;2023-03-21T11:45:02;14.85;;;9.93;;
12467;SDS011;57850;52.922;6.256;2023-03-21T11:47:35;17.98;;;9.57;;
12467;SDS011;57850;52.922;6.256;2023-03-21T11:50:05;19.02;;;10.55;;
12467;SDS011;57850;52.922;6.256;2023-03-21T11:52:42;18.02;;;10.32;;
12467;SDS011;57850;52.922;6.256;2023-03-21T11:55:22;13.77;;;8.93;;
12467;SDS011;57850;52.922;6.256;2023-03-21T11:58:10;15.13;;;8.90;;
12467;SDS011;57850;52.922;6.256;2023-03-21T12:00:50;13.38;;;9.35;;
12467;SDS011;57850;52.922;6.256;2023-03-21T12:03:29;15.57;;;9.05;;
12467;SDS011;57850;52.922;6.256;2023-03-21T12:06:21;14.00;;;8.93;;
12467;SDS011;57850;52.922;6.256;2023-03-21T12:08:57;12.55;;;8.15;;
12467;SDS011;57850;52.922;6.256;2023-03-21T12:11:44;12.68;;;8.07;;
12467;SDS011;57850;52.922;6.256;2023-03-21T12:14:22;15.35;;;9.05;;
12467;SDS011;57850;52.922;6.256;2023-03-21T12:17:02;19.15;;;9.18;;
12467;SDS011;57850;52.922;6.256;2023-03-21T12:19:45;16.77;;;8.52;;
12467;SDS011;57850;52.922;6.256;2023-03-21T12:22:23;15.43;;;9.50;;
12467;SDS011;57850;52.922;6.256;2023-03-21T12:24:58;12.85;;;9.38;;
12467;SDS011;57850;52.922;6.256;2023-03-21T12:27:34;14.00;;;8.93;;
12467;SDS011;57850;52.922;6.256;2023-03-21T12:30:12;16.88;;;9.07;;
12467;SDS011;57850;52.922;6.256;2023-03-21T12:32:57;16.33;;;9.27;;
12467;SDS011;57850;52.922;6.256;2023-03-21T12:35:52;16.98;;;9.68;;
12467;SDS011;57850;52.922;6.256;2023-03-21T12:38:31;15.50;;;9.23;;
12467;SDS011;57850;52.922;6.256;2023-03-21T12:41:21;15.13;;;9.02;;
12467;SDS011;57850;52.922;6.256;2023-03-21T12:43:51;16.50;;;9.80;;
12467;SDS011;57850;52.922;6.256;2023-03-21T12:46:26;17.02;;;8.75;;
12467;SDS011;57850;52.922;6.256;2023-03-21T12:49:00;13.20;;;9.13;;
12467;SDS011;57850;52.922;6.256;2023-03-21T12:51:31;18.42;;;9.23;;
12467;SDS011;57850;52.922;6.256;2023-03-21T12:54:04;13.93;;;9.38;;
12467;SDS011;57850;52.922;6.256;2023-03-21T12:56:40;14.95;;;8.70;;
12467;SDS011;57850;52.922;6.256;2023-03-21T12:59:17;12.93;;;9.52;;
12467;SDS011;57850;52.922;6.256;2023-03-21T13:01:51;11.23;;;9.55;;
12467;SDS011;57850;52.922;6.256;2023-03-21T13:04:39;14.68;;;9.90;;
12467;SDS011;57850;52.922;6.256;2023-03-21T13:07:11;13.32;;;9.45;;
12467;SDS011;57850;52.922;6.256;2023-03-21T13:09:42;12.93;;;9.70;;
12467;SDS011;57850;52.922;6.256;2023-03-21T13:12:15;15.60;;;9.30;;
12467;SDS011;57850;52.922;6.256;2023-03-21T13:14:53;16.65;;;9.93;;
12467;SDS011;57850;52.922;6.256;2023-03-21T13:17:29;18.27;;;9.40;;
12467;SDS011;57850;52.922;6.256;2023-03-21T13:20:03;12.77;;;9.20;;
12467;SDS011;57850;52.922;6.256;2023-03-21T13:22:39;16.98;;;10.55;;
12467;SDS011;57850;52.922;6.256;2023-03-21T13:25:14;15.77;;;10.32;;
12467;SDS011;57850;52.922;6.256;2023-03-21T13:27:46;14.52;;;9.18;;
12467;SDS011;57850;52.922;6.256;2023-03-21T13:30:17;12.85;;;9.57;;
12467;SDS011;57850;52.922;6.256;2023-03-21T13:32:47;11.88;;;8.93;;
12467;SDS011;57850;52.922;6.256;2023-03-21T13:35:17;14.48;;;9.13;;
12467;SDS011;57850;52.922;6.256;2023-03-21T13:37:51;16.15;;;9.52;;
12467;SDS011;57850;52.922;6.256;2023-03-21T13:40:22;19.77;;;11.68;;
12467;SDS011;57850;52.922;6.256;2023-03-21T13:42:52;13.70;;;9.43;;
12467;SDS011;57850;52.922;6.256;2023-03-21T13:45:25;16.05;;;9.48;;
12467;SDS011;57850;52.922;6.256;2023-03-21T13:47:56;15.93;;;10.98;;
12467;SDS011;57850;52.922;6.256;2023-03-21T13:50:29;14.80;;;9.57;;
12467;SDS011;57850;52.922;6.256;2023-03-21T13:58:50;12.63;;;9.93;;
12467;SDS011;57850;52.922;6.256;2023-03-21T14:01:27;15.10;;;9.13;;
12467;SDS011;57850;52.922;6.256;2023-03-21T14:03:57;16.52;;;8.88;;
12467;SDS011;57850;52.922;6.256;2023-03-21T14:06:31;14.02;;;8.82;;
12467;SDS011;57850;52.922;6.256;2023-03-21T14:09:01;16.40;;;10.00;;
12467;SDS011;57850;52.922;6.256;2023-03-21T14:11:28;14.27;;;8.95;;
12467;SDS011;57850;52.922;6.256;2023-03-21T14:13:58;12.70;;;9.32;;
12467;SDS011;57850;52.922;6.256;2023-03-21T14:16:25;16.10;;;10.00;;
12467;SDS011;57850;52.922;6.256;2023-03-21T14:18:54;19.23;;;9.60;;
12467;SDS011;57850;52.922;6.256;2023-03-21T14:21:22;14.65;;;9.93;;
12467;SDS011;57850;52.922;6.256;2023-03-21T14:23:56;14.90;;;10.43;;
12467;SDS011;57850;52.922;6.256;2023-03-21T14:26:23;18.67;;;9.50;;
12467;SDS011;57850;52.922;6.256;2023-03-21T14:28:51;17.80;;;9.88;;
12467;SDS011;57850;52.922;6.256;2023-03-21T14:31:18;13.88;;;10.27;;
12467;SDS011;57850;52.922;6.256;2023-03-21T14:33:46;13.85;;;9.88;;
12467;SDS011;57850;52.922;6.256;2023-03-21T14:36:18;12.98;;;9.82;;
12467;SDS011;57850;52.922;6.256;2023-03-21T14:38:53;15.68;;;9.95;;
12467;SDS011;57850;52.922;6.256;2023-03-21T14:41:23;17.13;;;9.63;;
12467;SDS011;57850;52.922;6.256;2023-03-21T14:44:10;14.93;;;9.73;;
12467;SDS011;57850;52.922;6.256;2023-03-21T14:46:46;15.77;;;10.27;;
12467;SDS011;57850;52.922;6.256;2023-03-21T14:49:17;16.15;;;10.82;;